Noojee Slivar, Australia

5:51 AM AEDT on December 05, 2016 (GMT +1100)
Noojee - Neerim North Rd | | Change Station

Elev 1270 ft 37.90 °S, 145.99 °E | Updated 36 seconds ago

Overcast
Overcast
72.9 °F
Feels Like 76 °F
N
2.9
Wind Variable Wind from WNW
Gusts 8.0 mph

Today
High -- | Low -- °F
--% Chance of Precip.
Yesterday
High -- | Low -- °F
Precip. -- in
Pressure 29.74 in
Visibility 6.2 miles
Clouds Scattered Clouds 2800 ft
Mostly Cloudy 4100 ft
Overcast 5300 ft
Heat Index 76 °F
Dew Point 60 °F
Humidity 64%
Rainfall 0.00 in
Snow Depth Not available.
5:47 AM 8:26 PM
Waxing Crescent, 24% visible
SPECI YMEN 041850Z AUTO 22020KT 210V350 9999 // SCT028 BKN041 OVC053 19/15 Q1007
Pressure 29.74 in
Visibility 6.2 miles
Clouds Scattered Clouds 2800 ft
Mostly Cloudy 4100 ft
Overcast 5300 ft
Heat Index 76 °F
Dew Point 60 °F
Humidity 64%
Rainfall 0.00 in
Snow Depth Not available.
5:47 AM 8:26 PM
Waxing Crescent, 24% visible
SPECI YMEN 041850Z AUTO 22020KT 210V350 9999 // SCT028 BKN041 OVC053 19/15 Q1007

10-Day Weather Forecast

×

Almanac

Astronomy

Dec. 05, 2016 Rise Set
Actual Time
Civil Twilight
Nautical Twilight
Astronomical Twilight
Moon
Length of Visible Light
Length of Day
Tomorrow will be .
, % of the Moon is Illuminated

Today's Extremes

Country Highs Country Lows

Community

WunderPhotos

Upload Photos

1,955,642 photos uploaded!

WunderBlog® & News

Nearby

Air Quality

  Air Quality AQ Index Pollutant
Not available.

Snow Depth

Station Depth Elevation

Earthquake Activity

City Distance Mag. Time & Date
Minimum magnitude displayed is 2.5.

Coastal Water Temperatures

Place Temperature

Stations

Nearby Weather Stations

Station Location Temp. Windchill Dew Point Humidity Wind Precip. Elev Updated Type